createdAt,value
2023-05-05T00:02:21.585Z,44.47
2023-05-05T00:05:30.845Z,44.09
2023-05-05T00:08:36.503Z,44.16
2023-05-05T00:11:43.100Z,43.97
2023-05-05T00:14:48.836Z,43.46
2023-05-05T00:17:55.259Z,44.19
2023-05-05T00:21:04.685Z,43.79
2023-05-05T00:24:11.850Z,43.49
2023-05-05T00:27:17.538Z,43.64
2023-05-05T00:30:24.558Z,43.86
2023-05-05T00:33:30.779Z,44.15
2023-05-05T00:36:40.249Z,44.09
2023-05-05T00:39:47.639Z,44.38
2023-05-05T00:42:54.323Z,45.31
2023-05-05T00:46:06.356Z,44.90
2023-05-05T00:49:13.799Z,44.88
2023-05-05T00:52:22.350Z,44.45
2023-05-05T00:55:29.057Z,45.16
2023-05-05T00:58:34.697Z,44.69
2023-05-05T01:01:41.435Z,44.59
2023-05-05T01:04:47.005Z,44.68
2023-05-05T01:08:26.959Z,45.32
2023-05-05T01:11:45.867Z,45.09
2023-05-05T01:15:04.437Z,45.16
2023-05-05T01:18:22.607Z,45.52
2023-05-05T01:21:36.529Z,45.59
2023-05-05T01:25:06.167Z,45.96
2023-05-05T01:28:31.077Z,46.10
2023-05-05T01:31:55.279Z,46.45
2023-05-05T01:35:07.444Z,45.63
2023-05-05T01:38:20.894Z,45.77
2023-05-05T01:41:33.899Z,45.72
2023-05-05T01:44:42.151Z,45.62
2023-05-05T01:47:52.381Z,46.07
2023-05-05T01:51:00.825Z,46.43
2023-05-05T01:54:11.590Z,46.59
2023-05-05T01:57:21.288Z,46.80
2023-05-05T02:00:30.649Z,46.82
2023-05-05T02:03:43.347Z,46.77
2023-05-05T02:06:53.387Z,46.29
2023-05-05T02:10:06.497Z,46.31
2023-05-05T02:13:15.712Z,46.85
2023-05-05T02:16:25.583Z,47.09
2023-05-05T02:19:42.662Z,46.74
2023-05-05T02:22:52.942Z,46.84
2023-05-05T02:26:06.513Z,46.96
2023-05-05T02:29:21.837Z,46.62
2023-05-05T02:32:36.760Z,46.85
2023-05-05T02:35:50.370Z,47.72
2023-05-05T02:39:03.850Z,47.72
2023-05-05T02:42:23.300Z,47.83
2023-05-05T02:45:32.041Z,48.07
2023-05-05T02:48:38.873Z,47.80
2023-05-05T02:51:47.295Z,47.70
2023-05-05T02:55:01.470Z,47.56
2023-05-05T02:58:27.333Z,47.41
2023-05-05T03:02:06.364Z,47.70
2023-05-05T03:05:22.073Z,47.33
2023-05-05T03:08:43.817Z,47.25
2023-05-05T03:12:02.469Z,48.08
2023-05-05T03:15:14.139Z,47.71
2023-05-05T03:18:24.306Z,47.35
2023-05-05T03:21:37.716Z,47.79
2023-05-05T03:24:53.457Z,47.96
2023-05-05T03:28:03.373Z,48.63
2023-05-05T03:31:09.450Z,48.64
2023-05-05T03:34:17.750Z,48.11
2023-05-05T03:37:26.444Z,47.86
2023-05-05T03:40:43.622Z,48.10
2023-05-05T03:43:53.089Z,48.68
2023-05-05T03:46:59.619Z,49.12
2023-05-05T03:50:09.677Z,49.11
2023-05-05T03:53:16.273Z,49.12
2023-05-05T03:56:25.524Z,48.93
2023-05-05T03:59:32.130Z,48.78
2023-05-05T04:02:37.964Z,48.40
2023-05-05T04:05:45.950Z,48.11
2023-05-05T04:08:55.157Z,47.71
2023-05-05T04:12:04.163Z,48.23
2023-05-05T04:15:11.697Z,47.98
2023-05-05T04:18:19.682Z,47.56
2023-05-05T04:21:25.916Z,47.41
2023-05-05T04:24:32.632Z,47.40
2023-05-05T04:27:41.044Z,47.47
2023-05-05T04:30:48.184Z,47.52
2023-05-05T04:33:54.116Z,47.39
2023-05-05T04:37:00.637Z,48.03
2023-05-05T04:40:07.098Z,48.16
2023-05-05T04:43:18.030Z,48.23
2023-05-05T04:46:23.866Z,48.49
2023-05-05T04:49:32.838Z,48.60
2023-05-05T04:52:38.802Z,48.80
2023-05-05T04:55:45.474Z,48.47
2023-05-05T04:58:53.997Z,48.55
2023-05-05T05:02:00.469Z,48.66
2023-05-05T05:05:06.960Z,48.76
2023-05-05T05:08:13.422Z,49.03
2023-05-05T05:11:19.271Z,49.07
2023-05-05T05:14:28.963Z,49.33
2023-05-05T05:17:34.931Z,49.10
2023-05-05T05:20:41.373Z,48.54
2023-05-05T05:23:47.823Z,48.28
2023-05-05T05:26:54.370Z,47.95
2023-05-05T05:30:05.353Z,48.07
2023-05-05T05:33:12.876Z,47.96
2023-05-05T05:36:19.494Z,47.68
2023-05-05T05:39:26.204Z,47.64
2023-05-05T05:42:32.348Z,47.94
2023-05-05T05:45:41.449Z,47.27
2023-05-05T05:48:47.714Z,47.37
2023-05-05T05:51:56.959Z,46.02
2023-05-05T05:55:03.460Z,47.26
2023-05-05T05:58:10.122Z,46.54
2023-05-05T06:01:18.900Z,46.71
2023-05-05T06:04:27.965Z,46.33
2023-05-05T06:07:33.992Z,45.71
2023-05-05T06:10:40.567Z,46.04
2023-05-05T06:13:50.962Z,46.20
2023-05-05T06:17:00.145Z,46.15
2023-05-05T06:20:09.449Z,45.94
2023-05-05T06:23:16.094Z,45.37
2023-05-05T06:26:28.711Z,45.02
2023-05-05T06:29:35.137Z,44.65
2023-05-05T06:32:43.521Z,45.06
2023-05-05T06:35:50.165Z,43.92
2023-05-05T06:38:55.776Z,43.30
2023-05-05T06:42:02.260Z,43.00
2023-05-05T06:45:09.550Z,42.08
2023-05-05T06:48:19.249Z,43.37
2023-05-05T06:51:25.315Z,42.58
2023-05-05T06:54:31.726Z,42.03
2023-05-05T06:57:39.170Z,41.70
2023-05-05T07:00:45.709Z,41.78
2023-05-05T07:03:54.457Z,41.86
2023-05-05T07:07:00.942Z,42.00
2023-05-05T07:10:07.939Z,40.01
2023-05-05T07:13:14.806Z,39.59
2023-05-05T07:16:20.538Z,37.73
2023-05-05T07:19:29.742Z,36.74
2023-05-05T07:22:35.610Z,33.46
2023-05-05T07:25:42.603Z,33.81
2023-05-05T07:28:48.333Z,32.53
2023-05-05T07:31:54.742Z,31.88
2023-05-05T07:35:03.027Z,31.58
2023-05-05T07:38:10.885Z,30.11
2023-05-05T07:41:16.757Z,28.19
2023-05-05T07:44:23.351Z,28.52
2023-05-05T07:47:29.034Z,28.50
2023-05-05T07:50:39.059Z,28.00
2023-05-05T07:53:44.861Z,25.52
2023-05-05T07:56:51.446Z,25.29
2023-05-05T07:59:57.050Z,24.13
2023-05-05T08:03:03.528Z,24.87
2023-05-05T08:06:16.277Z,24.88
2023-05-05T08:09:22.717Z,22.95
2023-05-05T08:12:28.492Z,22.67
2023-05-05T08:15:34.833Z,21.49
2023-05-05T08:18:40.683Z,22.68
2023-05-05T08:21:49.766Z,22.17
2023-05-05T08:24:56.000Z,21.14
2023-05-05T08:28:02.595Z,21.22
2023-05-05T08:31:08.935Z,21.03
2023-05-05T08:34:15.304Z,20.44
2023-05-05T08:37:23.632Z,18.46
2023-05-05T08:40:36.688Z,18.18
2023-05-05T08:43:42.620Z,18.57
2023-05-05T08:46:51.607Z,17.61
2023-05-05T08:50:00.050Z,17.23
2023-05-05T08:53:14.024Z,18.23
2023-05-05T08:56:24.429Z,18.25
2023-05-05T08:59:33.709Z,16.77
2023-05-05T09:02:40.798Z,16.88
2023-05-05T09:05:48.461Z,16.90
2023-05-05T09:08:59.459Z,16.53
2023-05-05T09:12:06.485Z,16.23
2023-05-05T09:15:14.622Z,15.12
2023-05-05T09:18:21.036Z,13.61
2023-05-05T09:21:29.551Z,13.88
2023-05-05T09:24:38.612Z,13.61
2023-05-05T09:27:48.447Z,13.16
2023-05-05T09:30:55.060Z,12.82
2023-05-05T09:34:01.308Z,12.45
2023-05-05T09:37:07.868Z,12.53
2023-05-05T09:40:18.691Z,12.42
2023-05-05T09:43:27.339Z,12.11
2023-05-05T09:46:33.380Z,11.37
2023-05-05T09:49:42.089Z,11.46
2023-05-05T09:52:58.694Z,10.84
2023-05-05T09:56:08.978Z,11.68
2023-05-05T09:59:15.103Z,10.86
2023-05-05T10:02:21.469Z,11.35
2023-05-05T10:05:27.197Z,10.39
2023-05-05T10:08:35.051Z,11.50
2023-05-05T10:11:47.955Z,9.84
2023-05-05T10:14:59.001Z,8.99
2023-05-05T10:18:09.265Z,9.37
2023-05-05T10:21:25.152Z,8.28
2023-05-05T10:24:42.991Z,8.60
2023-05-05T10:28:02.476Z,9.04
2023-05-05T10:31:25.833Z,10.09
2023-05-05T10:34:43.788Z,9.35
2023-05-05T10:37:51.351Z,9.55
2023-05-05T10:41:00.957Z,10.83
2023-05-05T10:44:11.138Z,10.50
2023-05-05T10:47:18.969Z,10.60
2023-05-05T10:50:41.911Z,10.49
2023-05-05T10:54:03.473Z,10.35
2023-05-05T10:57:14.999Z,9.28
2023-05-05T11:00:56.554Z,9.80
2023-05-05T11:04:27.148Z,8.97
2023-05-05T11:07:34.637Z,8.13
2023-05-05T11:10:47.930Z,8.62
2023-05-05T11:14:25.911Z,9.08
2023-05-05T11:17:49.533Z,8.63
2023-05-05T11:21:15.845Z,7.92
2023-05-05T11:24:32.225Z,7.72
2023-05-05T11:28:09.092Z,7.97
2023-05-05T11:31:27.036Z,7.14
2023-05-05T11:34:35.750Z,6.75
2023-05-05T11:37:42.507Z,6.95
2023-05-05T11:40:51.517Z,7.37
2023-05-05T11:44:15.685Z,8.19
2023-05-05T11:47:34.113Z,8.92
2023-05-05T11:50:41.029Z,8.86
2023-05-05T11:53:49.742Z,10.41
2023-05-05T11:56:57.403Z,9.46
2023-05-05T12:00:09.287Z,9.23
2023-05-05T12:03:18.031Z,9.10
2023-05-05T12:06:24.710Z,8.55
2023-05-05T12:09:30.977Z,8.73
2023-05-05T12:12:41.595Z,8.68
2023-05-05T12:15:47.392Z,8.53
2023-05-05T12:19:08.752Z,8.61
2023-05-05T12:22:21.547Z,8.01
2023-05-05T12:25:27.938Z,8.86
2023-05-05T12:28:48.045Z,8.91
2023-05-05T12:31:54.788Z,8.76
2023-05-05T12:35:03.868Z,8.63
2023-05-05T12:38:10.447Z,8.48
2023-05-05T12:41:22.622Z,8.15
2023-05-05T12:44:38.911Z,8.38
2023-05-05T12:47:45.140Z,8.24
2023-05-05T12:50:54.551Z,9.37
2023-05-05T12:54:10.777Z,8.75
2023-05-05T12:57:17.264Z,9.94
2023-05-05T13:00:26.211Z,10.00
2023-05-05T13:03:32.769Z,9.69
2023-05-05T13:06:42.864Z,8.97
2023-05-05T13:09:50.983Z,9.35
2023-05-05T13:12:59.546Z,9.70
2023-05-05T13:16:06.074Z,9.02
2023-05-05T13:19:11.940Z,10.60
2023-05-05T13:22:20.943Z,10.14
2023-05-05T13:25:27.064Z,10.29
2023-05-05T13:28:33.473Z,10.99
2023-05-05T13:31:39.207Z,10.68
2023-05-05T13:34:45.687Z,10.03
2023-05-05T13:37:53.920Z,10.50
2023-05-05T13:41:00.567Z,9.97
2023-05-05T13:44:06.192Z,9.98
2023-05-05T13:47:14.195Z,9.76
2023-05-05T13:50:19.876Z,10.12
2023-05-05T13:53:29.125Z,9.49
2023-05-05T13:56:34.857Z,9.89
2023-05-05T13:59:41.390Z,10.29
2023-05-05T14:02:47.235Z,10.65
2023-05-05T14:05:53.666Z,10.64
2023-05-05T14:09:02.019Z,10.71
2023-05-05T14:12:09.404Z,10.67
2023-05-05T14:15:15.529Z,11.10
2023-05-05T14:18:25.115Z,11.76
2023-05-05T14:21:31.915Z,11.87
2023-05-05T14:24:40.942Z,10.95
2023-05-05T14:27:46.704Z,10.55
2023-05-05T14:30:53.209Z,10.65
2023-05-05T14:33:58.998Z,10.58
2023-05-05T14:37:06.353Z,11.29
2023-05-05T14:40:15.239Z,10.51
2023-05-05T14:43:22.124Z,10.92
2023-05-05T14:46:28.171Z,10.63
2023-05-05T14:49:34.730Z,10.76
2023-05-05T14:52:40.868Z,11.63
2023-05-05T14:55:49.811Z,12.33
2023-05-05T14:58:56.087Z,11.24
2023-05-05T15:02:02.604Z,12.75
2023-05-05T15:05:10.697Z,13.27
2023-05-05T15:08:18.949Z,13.11
2023-05-05T15:11:27.280Z,14.46
2023-05-05T15:14:33.803Z,14.20
2023-05-05T15:17:42.024Z,14.13
2023-05-05T15:20:48.492Z,13.55
2023-05-05T15:23:54.196Z,13.71
2023-05-05T15:27:03.203Z,13.83
2023-05-05T15:30:14.277Z,14.02
2023-05-05T15:33:20.709Z,14.89
2023-05-05T15:36:26.424Z,15.49
2023-05-05T15:39:33.066Z,15.72
2023-05-05T15:42:41.457Z,16.10
2023-05-05T15:45:47.895Z,16.05
2023-05-05T15:48:53.673Z,16.07
2023-05-05T15:52:00.062Z,16.58
2023-05-05T15:55:07.118Z,16.27
2023-05-05T15:58:16.351Z,16.75
2023-05-05T16:01:22.088Z,16.54
2023-05-05T16:04:28.803Z,16.79
2023-05-05T16:07:34.405Z,17.91
2023-05-05T16:10:40.840Z,18.34
2023-05-05T16:13:49.130Z,18.40
2023-05-05T16:16:55.561Z,19.16
2023-05-05T16:20:03.202Z,19.52
2023-05-05T16:23:09.637Z,19.66
2023-05-05T16:26:15.282Z,19.76
2023-05-05T16:29:24.272Z,20.15
2023-05-05T16:32:30.004Z,19.93
2023-05-05T16:35:36.473Z,19.30
2023-05-05T16:38:44.054Z,19.70
2023-05-05T16:41:50.412Z,20.44
2023-05-05T16:44:58.645Z,20.36
2023-05-05T16:48:07.421Z,20.38
2023-05-05T16:51:14.806Z,20.59
2023-05-05T16:54:21.408Z,20.91
2023-05-05T16:57:27.272Z,21.26
2023-05-05T17:00:36.502Z,20.77
2023-05-05T17:03:42.445Z,21.40
2023-05-05T17:06:48.847Z,21.63
2023-05-05T17:09:54.420Z,22.15
2023-05-05T17:13:00.792Z,22.37
2023-05-05T17:16:09.403Z,22.90
2023-05-05T17:19:15.906Z,22.55
2023-05-05T17:22:21.982Z,22.48
2023-05-05T17:25:28.791Z,22.97
2023-05-05T17:28:34.403Z,22.94
2023-05-05T17:31:43.567Z,23.16
2023-05-05T17:34:49.204Z,22.93
2023-05-05T17:37:55.606Z,23.29
2023-05-05T17:41:01.375Z,23.07
2023-05-05T17:44:08.197Z,23.63
2023-05-05T17:47:16.405Z,23.90
2023-05-05T17:50:25.909Z,23.59
2023-05-05T17:53:31.891Z,23.56
2023-05-05T17:56:38.440Z,24.32
2023-05-05T17:59:44.043Z,24.13
2023-05-05T18:02:53.364Z,24.63
2023-05-05T18:05:59.060Z,24.23
2023-05-05T18:09:05.420Z,24.29
2023-05-05T18:12:11.453Z,24.57
2023-05-05T18:15:17.933Z,24.75
2023-05-05T18:18:26.573Z,25.18
2023-05-05T18:21:32.926Z,25.13
2023-05-05T18:24:38.509Z,25.48
2023-05-05T18:27:45.135Z,25.95
2023-05-05T18:30:50.741Z,25.53
2023-05-05T18:33:59.888Z,26.10
2023-05-05T18:37:05.559Z,25.82
2023-05-05T18:40:13.453Z,26.37
2023-05-05T18:43:19.107Z,26.79
2023-05-05T18:49:33.834Z,26.60
2023-05-05T18:52:40.301Z,26.80
2023-05-05T18:55:47.316Z,27.05
2023-05-05T18:58:53.890Z,27.33
2023-05-05T19:02:00.965Z,27.48
2023-05-05T19:05:11.924Z,27.73
2023-05-05T19:08:18.086Z,28.05
2023-05-05T19:11:24.487Z,28.03
2023-05-05T19:14:30.029Z,28.39
2023-05-05T19:17:36.575Z,27.85
2023-05-05T19:20:47.417Z,28.06
2023-05-05T19:23:56.835Z,28.35
2023-05-05T19:27:03.179Z,28.50
2023-05-05T19:30:12.896Z,28.92
2023-05-05T19:33:19.246Z,28.10
2023-05-05T19:36:28.614Z,28.56
2023-05-05T19:39:34.339Z,28.48
2023-05-05T19:42:40.760Z,28.73
2023-05-05T19:45:46.409Z,28.56
2023-05-05T19:48:52.977Z,29.15
2023-05-05T19:52:01.238Z,28.67
2023-05-05T19:55:10.696Z,29.13
2023-05-05T19:58:16.405Z,28.67
2023-05-05T20:01:22.974Z,28.91
2023-05-05T20:04:28.785Z,28.94
2023-05-05T20:07:37.732Z,29.10
2023-05-05T20:10:43.463Z,29.52
2023-05-05T20:13:51.024Z,29.88
2023-05-05T20:16:56.845Z,29.64
2023-05-05T20:20:03.275Z,29.77
2023-05-05T20:23:11.511Z,30.24
2023-05-05T20:26:18.137Z,30.19
2023-05-05T20:29:24.026Z,30.29
2023-05-05T20:32:30.756Z,30.43
2023-05-05T20:35:37.317Z,30.86
2023-05-05T20:38:46.924Z,30.74
2023-05-05T20:41:52.699Z,31.27
2023-05-05T20:44:59.456Z,31.98
2023-05-05T20:48:05.549Z,31.61
2023-05-05T20:51:12.126Z,31.91
2023-05-05T20:54:20.876Z,31.74
2023-05-05T20:57:27.322Z,31.78
2023-05-05T21:00:33.118Z,31.97
2023-05-05T21:03:40.205Z,31.41
2023-05-05T21:06:46.183Z,31.83
2023-05-05T21:09:55.271Z,32.11
2023-05-05T21:13:00.840Z,31.78
2023-05-05T21:16:08.055Z,32.21
2023-05-05T21:19:13.602Z,31.77
2023-05-05T21:22:20.365Z,32.05
2023-05-05T21:25:30.829Z,32.40
2023-05-05T21:28:37.223Z,32.74
2023-05-05T21:31:44.284Z,32.59
2023-05-05T21:34:50.873Z,32.84
2023-05-05T21:37:56.471Z,33.32
2023-05-05T21:41:05.593Z,32.65
2023-05-05T21:44:11.393Z,32.79
2023-05-05T21:47:17.754Z,32.80
2023-05-05T21:50:23.437Z,32.84
2023-05-05T21:53:30.223Z,32.95
2023-05-05T21:56:39.506Z,32.90
2023-05-05T21:59:46.063Z,32.92
2023-05-05T22:02:51.779Z,33.09
2023-05-05T22:05:58.268Z,33.34
2023-05-05T22:09:04.095Z,33.62
2023-05-05T22:12:13.140Z,33.58
2023-05-05T22:15:20.162Z,33.93
2023-05-05T22:18:26.681Z,34.13
2023-05-05T22:21:32.620Z,34.27
2023-05-05T22:24:39.014Z,34.25
2023-05-05T22:27:47.329Z,34.26
2023-05-05T22:30:53.953Z,34.49
2023-05-05T22:33:59.730Z,34.40
2023-05-05T22:37:06.261Z,34.44
2023-05-05T22:40:15.780Z,34.77
2023-05-05T22:43:24.753Z,34.34
2023-05-05T22:46:30.453Z,34.29
2023-05-05T22:49:37.048Z,34.55
2023-05-05T22:52:42.832Z,34.42
2023-05-05T22:55:49.441Z,34.35
2023-05-05T22:58:57.623Z,34.71
2023-05-05T23:02:04.186Z,34.87
2023-05-05T23:05:11.333Z,34.94
2023-05-05T23:08:17.947Z,35.51
2023-05-05T23:11:23.688Z,34.96
2023-05-05T23:14:32.914Z,35.16
2023-05-05T23:17:39.607Z,35.70
2023-05-05T23:20:45.940Z,35.96
2023-05-05T23:23:51.676Z,36.18
2023-05-05T23:26:58.778Z,36.82
2023-05-05T23:30:07.945Z,36.85
2023-05-05T23:33:14.491Z,37.93
2023-05-05T23:36:20.245Z,38.28
2023-05-05T23:39:26.649Z,38.48
2023-05-05T23:42:32.357Z,38.11
2023-05-05T23:45:41.647Z,38.46
2023-05-05T23:48:47.406Z,38.44
2023-05-05T23:51:53.802Z,38.50
2023-05-05T23:54:59.390Z,39.10
2023-05-05T23:58:06.008Z,39.59
